x

Southeast Of Ponce, Pr (42085) Wave Buoy

4:00pm - Fri 19th Sep 2014 All times are AST. -4 hours from GMT.

  • Sig Wave height 3.0ft
  • Peak Period 5s
  • Wind
    16mph, 20mph gusts
  • Sea Temp 85°f
  • Sea Pressure 1011.5mb
  • Southeast Of Ponce, Pr
  • Southeast Of Ponce, Pr

More Historic Weather Station data

Upgrade to MSW Pro to gain access to the past 30 days of data for over 8000 Wavebouys and Weather Stations around the globe.

Join Pro

Comparision Forecast

View Surf forecast
   
Fri 09/19 4:00pm 3ft 5s 16 20 mph 1011.5mb 85f
3:00pm 3ft 4s 18 22 mph 1011.8mb 85f
2:00pm 2.5ft 5s 18 20 mph 1012.1mb 85f
1:00pm 3ft 5s 16 18 mph 1013.1mb 85f
12:00pm 2.5ft 5s 13 16 mph 1013.7mb 85f
11:00am 2.5ft 5s 7 9 mph 1014.5mb 85f
10:00am 2.5ft 5s 9 11 mph 1014.2mb 84f
9:00am 3ft 5s 7 11 mph 1014.2mb 84f
8:00am 3.5ft 4s 11 13 mph 1013.3mb 84f
7:00am 3.5ft 5s 18 25 mph 1013.2mb 84f
6:00am 3.5ft 4s 22 27 mph 1013.1mb 84f
5:00am 3.5ft 5s 20 25 mph 1013.7mb 84f
4:00am 2.5ft 4s 18 25 mph 1012.5mb 84f
3:00am 2.5ft 4s 9 11 mph 1012.4mb 84f
2:00am 2.5ft 4s 11 18 mph 1012.7mb 84f
1:00am 2.5ft 5s 9 11 mph 1012.5mb 84f
12:00am 2ft 4s 11 13 mph 1013.8mb 84f
Thu 09/18 11:00pm 2ft 3s 7 13 mph 1013.4mb 85f
10:00pm 2ft 4s 11 13 mph 1013.8mb 84f
9:00pm 2ft 4s 11 13 mph 1013.4mb 84f
8:00pm 2ft 5s 11 13 mph 1012.8mb 84f
7:00pm 2.5ft 4s 11 13 mph 1012.2mb 84f
6:00pm 2.5ft 4s 13 16 mph 1011.5mb 85f
5:00pm 2.5ft 5s 13 18 mph 1011.2mb 85f
4:00pm 2ft 5s 13 16 mph 1011.3mb 85f
3:00pm 2ft 5s 9 13 mph 1011.2mb 85f
2:00pm 2ft 5s 11 13 mph 1011.6mb 85f
1:00pm 2ft 5s 11 13 mph 1012.8mb 85f
12:00pm 2ft 5s 11 13 mph 1013.7mb 85f
11:00am 2ft 5s 7 9 mph 1014mb 85f
10:00am 2ft 5s 4 7 mph 1014.2mb 85f
9:00am 2ft 5s 4 7 mph 1014.2mb 84f
8:00am 2.5ft 5s 7 9 mph 1013.9mb 84f
7:00am 2.5ft 5s 4 7 mph 1013.1mb 84f
6:00am 2.5ft 5s 7 9 mph 1013mb 84f
5:00am 2.5ft 5s 4 7 mph 1012.5mb 84f
4:00am 2ft 5s 7 9 mph 1012.4mb 84f
3:00am 2ft 5s 9
mph
1012.8mb 84f
2:00am 2.5ft 5s 7 9 mph 1013.1mb 84f
1:00am 2.5ft 5s 7 9 mph 1013.6mb 84f
12:00am 2.5ft 5s 7
mph
1014.1mb 84f
Wed 09/17 11:00pm 2.5ft 5s 7 9 mph 1014.5mb 84f
10:00pm 2.5ft 5s 11 13 mph 1014.3mb 84f
9:00pm 3ft 5s 11 13 mph 1013.5mb 84f
8:00pm 3ft 5s 16 18 mph 1012.6mb 84f
7:00pm 3.5ft 4s 18 22 mph 1011.9mb 84f
6:00pm 3ft 4s 18 20 mph 1011.5mb 84f
5:00pm 2.5ft 5s 13 18 mph 1011.6mb 84f
4:00pm 2.5ft 5s 16 18 mph 1011.8mb 85f
3:00pm 2.5ft 5s 13 16 mph 1012.1mb 85f
2:00pm 2.5ft 4s 13 16 mph 1012.7mb 84f
1:00pm 2.5ft 4s 13 16 mph 1013.4mb 85f
12:00pm 2.5ft 5s 13 16 mph 1014.4mb 85f
11:00am 2.5ft 5s 13 16 mph 1014.8mb 85f
10:00am 2.5ft 5s 13 18 mph 1014.9mb 84f
9:00am 2.5ft 5s 11 16 mph 1014.5mb 84f
8:00am 2.5ft 5s 11 16 mph 1014.3mb 84f
7:00am 2.5ft 5s 7 9 mph 1013.5mb 84f
6:00am 2.5ft 5s 9 11 mph 1013mb 84f
5:00am 2.5ft 5s 9 11 mph 1013.1mb 84f
4:00am 2.5ft 5s 9 11 mph 1013mb 84f
3:00am 2ft 4s 9 11 mph 1013mb 84f
2:00am 2ft 4s 11 13 mph 1013.4mb 84f
1:00am 2ft 5s 11 13 mph 1014.3mb 85f
12:00am 2ft 5s 13 16 mph 1014.3mb 85f
Tue 09/16 11:00pm 2.5ft 4s 13 16 mph 1014.5mb 85f
10:00pm 2.5ft 3s 11 13 mph 1014.2mb 85f
9:00pm 2.5ft 4s 11 16 mph 1013.7mb 85f
8:00pm 2.5ft 5s 11 16 mph 1013mb 85f
7:00pm 2.5ft 4s 13 16 mph 1012.5mb 85f
6:00pm 2ft 4s 11 13 mph 1012.3mb 85f
5:00pm 2ft 4s 11 16 mph 1012.4mb 85f
4:00pm 2ft 4s 13 18 mph 1012.4mb 85f
3:00pm 2.5ft 4s 9 11 mph 1012.8mb 85f
2:00pm 2.5ft 4s 11 16 mph 1013.5mb 85f
1:00pm 2.5ft 4s 11 16 mph 1014.2mb 85f
12:00pm 2.5ft 5s 13 16 mph 1015mb 85f
11:00am 2ft 9s 11 13 mph 1015.7mb 84f
10:00am 2ft 10s 7 9 mph 1015.7mb 84f
9:00am 2ft 5s 7 9 mph 1015.5mb 84f
8:00am 2ft 5s 7 9 mph 1014.9mb 84f
7:00am 2ft 5s 9 11 mph 1014mb 84f
6:00am 2ft 5s 9 11 mph 1013.7mb 84f
5:00am 2ft 5s 9 11 mph 1013.6mb 84f
4:00am 2ft 5s 9
mph
1013.6mb 84f
3:00am 2ft 5s 7 9 mph 1013.9mb 84f
2:00am 2ft 6s 7 9 mph 1014.4mb 84f
1:00am 2ft 6s 7 9 mph 1015.3mb 84f
12:00am 2ft 5s 9 11 mph 1015.7mb 84f
Mon 09/15 11:00pm 2ft 5s 9 11 mph 1016mb 84f